Terminal Aerodrome Forecast
Issued by NWS

Home | Current Version | Previous Version | Text Only | Print | Product List | Glossary On
Versions: 1 2 3 4 5 6 7 8 9 10 11 12 13 14 15 16 17
633
FTAK31 PAJN 110537
TAFAGY
TAF
PAGY 110537Z 1106/1206 03005KT P6SM -RA OVC040
     FM110900 20017KT 5SM RA BR BKN015 OVC030
     FM111800 21009KT P6SM -RA SCT015 OVC035
      AMD LTD TO CLD VIS AND WIND=

USA.gov is the U.S. government's official web portal to all federal, state and local government web resources and services.